Terminal Aerodrome Forecast
Issued by NWS

Home | Current Version | Previous Version | Text Only | Print | Product List | Glossary On
Versions: 1 2 3 4 5 6 7 8 9 10 11 12 13 14 15
272
FTAK31 PAJN 281736
TAFAJN
TAF
PAJN 281736Z 2818/2918 VRB03KT P6SM SCT035 BKN050 OVC100
     FM282100 24006KT P6SM BKN040 OVC100
     FM290400 09004KT P6SM FEW010 BKN040 OVC100=

USA.gov is the U.S. government's official web portal to all federal, state and local government web resources and services.